sensor_id;sensor_type;location;lat;lon;timestamp;temperature;humidity
22698;DHT22;11516;51.612;7.510;2022-09-17T00:00:47;10.80;99.90
22698;DHT22;11516;51.612;7.510;2022-09-17T00:03:13;10.80;99.90
22698;DHT22;11516;51.612;7.510;2022-09-17T00:05:38;10.80;99.90
22698;DHT22;11516;51.612;7.510;2022-09-17T00:08:05;10.80;99.90
22698;DHT22;11516;51.612;7.510;2022-09-17T00:10:31;10.80;99.90
22698;DHT22;11516;51.612;7.510;2022-09-17T00:12:57;10.80;99.90
22698;DHT22;11516;51.612;7.510;2022-09-17T00:15:23;10.80;99.90
22698;DHT22;11516;51.612;7.510;2022-09-17T00:17:53;10.70;99.90
22698;DHT22;11516;51.612;7.510;2022-09-17T00:20:19;10.70;99.90
22698;DHT22;11516;51.612;7.510;2022-09-17T00:22:46;10.70;99.90
22698;DHT22;11516;51.612;7.510;2022-09-17T00:25:11;10.70;99.90
22698;DHT22;11516;51.612;7.510;2022-09-17T00:27:37;10.70;99.90
22698;DHT22;11516;51.612;7.510;2022-09-17T00:30:03;10.60;99.90
22698;DHT22;11516;51.612;7.510;2022-09-17T00:32:29;10.70;99.90
22698;DHT22;11516;51.612;7.510;2022-09-17T00:34:54;10.70;99.90
22698;DHT22;11516;51.612;7.510;2022-09-17T00:37:20;10.70;99.90
22698;DHT22;11516;51.612;7.510;2022-09-17T00:39:46;10.60;99.90
22698;DHT22;11516;51.612;7.510;2022-09-17T00:42:12;10.70;99.90
22698;DHT22;11516;51.612;7.510;2022-09-17T00:44:55;10.70;99.90
22698;DHT22;11516;51.612;7.510;2022-09-17T00:47:31;10.70;99.90
22698;DHT22;11516;51.612;7.510;2022-09-17T00:52:36;10.60;99.90
22698;DHT22;11516;51.612;7.510;2022-09-17T00:55:15;10.60;99.90
22698;DHT22;11516;51.612;7.510;2022-09-17T00:57:42;10.60;99.90
22698;DHT22;11516;51.612;7.510;2022-09-17T01:00:11;10.50;99.90
22698;DHT22;11516;51.612;7.510;2022-09-17T01:02:37;10.50;99.90
22698;DHT22;11516;51.612;7.510;2022-09-17T01:05:04;10.50;99.90
22698;DHT22;11516;51.612;7.510;2022-09-17T01:07:56;10.50;99.90
22698;DHT22;11516;51.612;7.510;2022-09-17T01:10:44;10.50;99.90
22698;DHT22;11516;51.612;7.510;2022-09-17T01:13:36;10.50;99.90
22698;DHT22;11516;51.612;7.510;2022-09-17T01:16:29;10.40;99.90
22698;DHT22;11516;51.612;7.510;2022-09-17T01:22:07;10.40;99.90
22698;DHT22;11516;51.612;7.510;2022-09-17T01:30:38;10.30;99.90
22698;DHT22;11516;51.612;7.510;2022-09-17T01:33:11;10.30;99.90
22698;DHT22;11516;51.612;7.510;2022-09-17T01:38:26;10.30;99.90
22698;DHT22;11516;51.612;7.510;2022-09-17T01:41:36;10.30;99.90
22698;DHT22;11516;51.612;7.510;2022-09-17T01:44:10;10.30;99.90
22698;DHT22;11516;51.612;7.510;2022-09-17T01:46:45;10.30;99.90
22698;DHT22;11516;51.612;7.510;2022-09-17T01:49:14;10.30;99.90
22698;DHT22;11516;51.612;7.510;2022-09-17T01:51:44;10.20;99.90
22698;DHT22;11516;51.612;7.510;2022-09-17T01:54:24;10.20;99.90
22698;DHT22;11516;51.612;7.510;2022-09-17T01:57:02;10.20;99.90
22698;DHT22;11516;51.612;7.510;2022-09-17T01:59:33;10.10;99.90
22698;DHT22;11516;51.612;7.510;2022-09-17T02:02:12;10.10;99.90
22698;DHT22;11516;51.612;7.510;2022-09-17T02:04:56;10.00;99.90
22698;DHT22;11516;51.612;7.510;2022-09-17T02:07:23;10.10;99.90
22698;DHT22;11516;51.612;7.510;2022-09-17T02:10:12;10.10;99.90
22698;DHT22;11516;51.612;7.510;2022-09-17T02:12:45;10.10;99.90
22698;DHT22;11516;51.612;7.510;2022-09-17T02:15:21;10.10;99.90
22698;DHT22;11516;51.612;7.510;2022-09-17T02:18:01;10.10;99.90
22698;DHT22;11516;51.612;7.510;2022-09-17T02:20:39;10.10;99.90
22698;DHT22;11516;51.612;7.510;2022-09-17T02:23:13;10.00;99.90
22698;DHT22;11516;51.612;7.510;2022-09-17T02:25:46;10.00;99.90
22698;DHT22;11516;51.612;7.510;2022-09-17T02:28:32;10.00;99.90
22698;DHT22;11516;51.612;7.510;2022-09-17T02:31:00;10.00;99.90
22698;DHT22;11516;51.612;7.510;2022-09-17T02:33:26;10.10;99.90
22698;DHT22;11516;51.612;7.510;2022-09-17T02:35:53;10.10;99.90
22698;DHT22;11516;51.612;7.510;2022-09-17T02:38:25;10.10;99.90
22698;DHT22;11516;51.612;7.510;2022-09-17T02:41:00;10.20;99.90
22698;DHT22;11516;51.612;7.510;2022-09-17T02:43:46;10.10;99.90
22698;DHT22;11516;51.612;7.510;2022-09-17T02:49:06;10.10;99.90
22698;DHT22;11516;51.612;7.510;2022-09-17T02:51:51;10.20;99.90
22698;DHT22;11516;51.612;7.510;2022-09-17T02:54:34;10.10;99.90
22698;DHT22;11516;51.612;7.510;2022-09-17T02:57:19;10.20;99.90
22698;DHT22;11516;51.612;7.510;2022-09-17T03:02:48;10.20;99.90
22698;DHT22;11516;51.612;7.510;2022-09-17T03:05:17;10.20;99.90
22698;DHT22;11516;51.612;7.510;2022-09-17T03:07:43;10.30;99.90
22698;DHT22;11516;51.612;7.510;2022-09-17T03:10:09;10.30;99.90
22698;DHT22;11516;51.612;7.510;2022-09-17T03:12:35;10.30;99.90
22698;DHT22;11516;51.612;7.510;2022-09-17T03:15:01;10.30;99.90
22698;DHT22;11516;51.612;7.510;2022-09-17T03:17:28;10.30;99.90
22698;DHT22;11516;51.612;7.510;2022-09-17T03:19:53;10.30;99.90
22698;DHT22;11516;51.612;7.510;2022-09-17T03:22:19;10.30;99.90
22698;DHT22;11516;51.612;7.510;2022-09-17T03:24:45;10.30;99.90
22698;DHT22;11516;51.612;7.510;2022-09-17T03:27:11;10.20;99.90
22698;DHT22;11516;51.612;7.510;2022-09-17T03:29:36;10.10;99.90
22698;DHT22;11516;51.612;7.510;2022-09-17T03:32:02;10.10;99.90
22698;DHT22;11516;51.612;7.510;2022-09-17T03:34:28;10.20;99.90
22698;DHT22;11516;51.612;7.510;2022-09-17T03:36:53;10.10;99.90
22698;DHT22;11516;51.612;7.510;2022-09-17T03:39:19;10.10;99.90
22698;DHT22;11516;51.612;7.510;2022-09-17T03:41:44;10.10;99.90
22698;DHT22;11516;51.612;7.510;2022-09-17T03:44:10;10.10;99.90
22698;DHT22;11516;51.612;7.510;2022-09-17T03:46:36;10.10;99.90
22698;DHT22;11516;51.612;7.510;2022-09-17T03:49:02;10.10;99.90
22698;DHT22;11516;51.612;7.510;2022-09-17T03:51:27;10.10;99.90
22698;DHT22;11516;51.612;7.510;2022-09-17T03:53:53;10.10;99.90
22698;DHT22;11516;51.612;7.510;2022-09-17T03:56:18;10.10;99.90
22698;DHT22;11516;51.612;7.510;2022-09-17T03:58:44;10.00;99.90
22698;DHT22;11516;51.612;7.510;2022-09-17T04:01:10;10.00;99.90
22698;DHT22;11516;51.612;7.510;2022-09-17T04:03:35;10.10;99.90
22698;DHT22;11516;51.612;7.510;2022-09-17T04:06:01;10.10;99.90
22698;DHT22;11516;51.612;7.510;2022-09-17T04:08:26;10.10;99.90
22698;DHT22;11516;51.612;7.510;2022-09-17T04:10:52;10.10;99.90
22698;DHT22;11516;51.612;7.510;2022-09-17T04:13:18;10.00;99.90
22698;DHT22;11516;51.612;7.510;2022-09-17T04:15:44;10.00;99.90
22698;DHT22;11516;51.612;7.510;2022-09-17T04:18:10;10.00;99.90
22698;DHT22;11516;51.612;7.510;2022-09-17T04:20:36;10.10;99.90
22698;DHT22;11516;51.612;7.510;2022-09-17T04:23:01;10.10;99.90
22698;DHT22;11516;51.612;7.510;2022-09-17T04:25:27;10.10;99.90
22698;DHT22;11516;51.612;7.510;2022-09-17T04:27:52;10.10;99.90
22698;DHT22;11516;51.612;7.510;2022-09-17T04:30:18;10.10;99.90
22698;DHT22;11516;51.612;7.510;2022-09-17T04:32:44;10.10;99.90
22698;DHT22;11516;51.612;7.510;2022-09-17T04:35:11;10.10;99.90
22698;DHT22;11516;51.612;7.510;2022-09-17T04:37:37;10.10;99.90
22698;DHT22;11516;51.612;7.510;2022-09-17T04:40:03;10.10;99.90
22698;DHT22;11516;51.612;7.510;2022-09-17T04:42:29;10.10;99.90
22698;DHT22;11516;51.612;7.510;2022-09-17T04:44:54;10.10;99.90
22698;DHT22;11516;51.612;7.510;2022-09-17T04:47:20;10.10;99.90
22698;DHT22;11516;51.612;7.510;2022-09-17T04:49:45;10.10;99.90
22698;DHT22;11516;51.612;7.510;2022-09-17T04:52:10;10.10;99.90
22698;DHT22;11516;51.612;7.510;2022-09-17T04:54:36;10.10;99.90
22698;DHT22;11516;51.612;7.510;2022-09-17T04:57:02;10.10;99.90
22698;DHT22;11516;51.612;7.510;2022-09-17T04:59:28;10.10;99.90
22698;DHT22;11516;51.612;7.510;2022-09-17T05:01:54;10.10;99.90
22698;DHT22;11516;51.612;7.510;2022-09-17T05:04:19;10.10;99.90
22698;DHT22;11516;51.612;7.510;2022-09-17T05:06:45;10.10;99.90
22698;DHT22;11516;51.612;7.510;2022-09-17T05:09:11;10.10;99.90
22698;DHT22;11516;51.612;7.510;2022-09-17T05:11:36;10.20;99.90
22698;DHT22;11516;51.612;7.510;2022-09-17T05:14:02;10.10;99.90
22698;DHT22;11516;51.612;7.510;2022-09-17T05:16:27;10.20;99.90
22698;DHT22;11516;51.612;7.510;2022-09-17T05:18:53;10.20;99.90
22698;DHT22;11516;51.612;7.510;2022-09-17T05:21:19;10.30;99.90
22698;DHT22;11516;51.612;7.510;2022-09-17T05:23:45;10.20;99.90
22698;DHT22;11516;51.612;7.510;2022-09-17T05:26:10;10.20;99.90
22698;DHT22;11516;51.612;7.510;2022-09-17T05:28:36;10.20;99.90
22698;DHT22;11516;51.612;7.510;2022-09-17T05:31:02;10.30;99.90
22698;DHT22;11516;51.612;7.510;2022-09-17T05:33:29;10.30;99.90
22698;DHT22;11516;51.612;7.510;2022-09-17T05:35:55;10.30;99.90
22698;DHT22;11516;51.612;7.510;2022-09-17T05:38:20;10.30;99.90
22698;DHT22;11516;51.612;7.510;2022-09-17T05:40:46;10.40;99.90
22698;DHT22;11516;51.612;7.510;2022-09-17T05:43:13;10.40;99.90
22698;DHT22;11516;51.612;7.510;2022-09-17T05:45:39;10.50;99.90
22698;DHT22;11516;51.612;7.510;2022-09-17T05:48:06;10.50;99.90
22698;DHT22;11516;51.612;7.510;2022-09-17T05:50:32;10.60;99.90
22698;DHT22;11516;51.612;7.510;2022-09-17T05:53:05;10.60;99.90
22698;DHT22;11516;51.612;7.510;2022-09-17T05:55:32;10.60;99.90
22698;DHT22;11516;51.612;7.510;2022-09-17T05:57:58;10.70;99.90
22698;DHT22;11516;51.612;7.510;2022-09-17T06:00:23;10.70;99.90
22698;DHT22;11516;51.612;7.510;2022-09-17T06:02:55;10.70;99.90
22698;DHT22;11516;51.612;7.510;2022-09-17T06:05:22;10.80;99.90
22698;DHT22;11516;51.612;7.510;2022-09-17T06:07:48;10.80;99.90
22698;DHT22;11516;51.612;7.510;2022-09-17T06:10:14;10.90;99.90
22698;DHT22;11516;51.612;7.510;2022-09-17T06:12:39;10.90;99.90
22698;DHT22;11516;51.612;7.510;2022-09-17T06:15:05;11.00;99.90
22698;DHT22;11516;51.612;7.510;2022-09-17T06:17:34;11.00;99.90
22698;DHT22;11516;51.612;7.510;2022-09-17T06:20:01;11.10;99.90
22698;DHT22;11516;51.612;7.510;2022-09-17T06:22:27;11.20;99.90
22698;DHT22;11516;51.612;7.510;2022-09-17T06:24:52;11.20;99.90
22698;DHT22;11516;51.612;7.510;2022-09-17T06:27:18;11.30;99.90
22698;DHT22;11516;51.612;7.510;2022-09-17T06:29:43;11.30;99.90
22698;DHT22;11516;51.612;7.510;2022-09-17T06:32:09;11.30;99.90
22698;DHT22;11516;51.612;7.510;2022-09-17T06:34:37;11.40;99.90
22698;DHT22;11516;51.612;7.510;2022-09-17T06:37:03;11.30;99.90
22698;DHT22;11516;51.612;7.510;2022-09-17T06:39:29;11.30;99.90
22698;DHT22;11516;51.612;7.510;2022-09-17T06:41:54;11.30;99.90
22698;DHT22;11516;51.612;7.510;2022-09-17T06:44:20;11.30;99.90
22698;DHT22;11516;51.612;7.510;2022-09-17T06:46:48;11.30;99.90
22698;DHT22;11516;51.612;7.510;2022-09-17T06:49:14;11.30;99.90
22698;DHT22;11516;51.612;7.510;2022-09-17T06:51:42;11.30;99.90
22698;DHT22;11516;51.612;7.510;2022-09-17T06:54:07;11.30;99.90
22698;DHT22;11516;51.612;7.510;2022-09-17T06:56:33;11.40;99.90
22698;DHT22;11516;51.612;7.510;2022-09-17T06:58:59;11.40;99.90
22698;DHT22;11516;51.612;7.510;2022-09-17T07:01:25;11.50;99.90
22698;DHT22;11516;51.612;7.510;2022-09-17T07:03:50;11.40;99.90
22698;DHT22;11516;51.612;7.510;2022-09-17T07:06:16;11.50;99.90
22698;DHT22;11516;51.612;7.510;2022-09-17T07:08:41;11.60;99.90
22698;DHT22;11516;51.612;7.510;2022-09-17T07:11:07;11.60;99.90
22698;DHT22;11516;51.612;7.510;2022-09-17T07:13:33;11.70;99.90
22698;DHT22;11516;51.612;7.510;2022-09-17T07:16:00;11.80;99.90
22698;DHT22;11516;51.612;7.510;2022-09-17T07:18:27;11.80;99.90
22698;DHT22;11516;51.612;7.510;2022-09-17T07:23:21;11.80;99.90
22698;DHT22;11516;51.612;7.510;2022-09-17T07:25:58;11.90;99.90
22698;DHT22;11516;51.612;7.510;2022-09-17T07:28:24;12.00;99.90
22698;DHT22;11516;51.612;7.510;2022-09-17T07:30:51;12.00;99.90
22698;DHT22;11516;51.612;7.510;2022-09-17T07:33:19;12.00;99.90
22698;DHT22;11516;51.612;7.510;2022-09-17T07:35:59;12.10;99.90
22698;DHT22;11516;51.612;7.510;2022-09-17T07:38:27;12.10;99.90
22698;DHT22;11516;51.612;7.510;2022-09-17T07:41:00;12.20;99.90
22698;DHT22;11516;51.612;7.510;2022-09-17T07:43:27;12.10;99.90
22698;DHT22;11516;51.612;7.510;2022-09-17T07:45:55;12.00;99.90
22698;DHT22;11516;51.612;7.510;2022-09-17T07:48:21;11.90;99.90
22698;DHT22;11516;51.612;7.510;2022-09-17T07:50:47;11.90;99.90
22698;DHT22;11516;51.612;7.510;2022-09-17T07:53:13;11.90;99.90
22698;DHT22;11516;51.612;7.510;2022-09-17T07:55:38;11.90;99.90
22698;DHT22;11516;51.612;7.510;2022-09-17T07:58:04;11.90;99.90
22698;DHT22;11516;51.612;7.510;2022-09-17T08:00:29;12.00;99.90
22698;DHT22;11516;51.612;7.510;2022-09-17T08:02:55;12.10;99.90
22698;DHT22;11516;51.612;7.510;2022-09-17T08:05:23;12.20;99.90
22698;DHT22;11516;51.612;7.510;2022-09-17T08:07:53;12.30;99.90
22698;DHT22;11516;51.612;7.510;2022-09-17T08:10:20;12.20;99.90
22698;DHT22;11516;51.612;7.510;2022-09-17T08:12:48;12.30;99.90
22698;DHT22;11516;51.612;7.510;2022-09-17T08:15:15;12.40;99.90
22698;DHT22;11516;51.612;7.510;2022-09-17T08:17:45;12.60;99.90
22698;DHT22;11516;51.612;7.510;2022-09-17T08:20:14;12.70;99.90
22698;DHT22;11516;51.612;7.510;2022-09-17T08:22:40;12.80;99.90
22698;DHT22;11516;51.612;7.510;2022-09-17T08:25:06;12.90;99.90
22698;DHT22;11516;51.612;7.510;2022-09-17T08:27:32;12.80;99.90
22698;DHT22;11516;51.612;7.510;2022-09-17T08:29:58;12.80;99.90
22698;DHT22;11516;51.612;7.510;2022-09-17T08:32:24;12.90;99.90
22698;DHT22;11516;51.612;7.510;2022-09-17T08:34:58;13.00;99.90
22698;DHT22;11516;51.612;7.510;2022-09-17T08:37:25;13.10;99.90
22698;DHT22;11516;51.612;7.510;2022-09-17T08:40:08;13.00;99.90
22698;DHT22;11516;51.612;7.510;2022-09-17T08:42:40;13.00;99.90
22698;DHT22;11516;51.612;7.510;2022-09-17T08:45:18;13.10;99.90
22698;DHT22;11516;51.612;7.510;2022-09-17T08:47:45;13.20;99.90
22698;DHT22;11516;51.612;7.510;2022-09-17T08:50:24;13.30;99.90
22698;DHT22;11516;51.612;7.510;2022-09-17T08:53:16;13.40;99.90
22698;DHT22;11516;51.612;7.510;2022-09-17T08:55:58;13.30;99.90
22698;DHT22;11516;51.612;7.510;2022-09-17T09:03:48;13.60;99.90
22698;DHT22;11516;51.612;7.510;2022-09-17T09:06:16;13.80;99.90
22698;DHT22;11516;51.612;7.510;2022-09-17T09:08:52;14.00;99.90
22698;DHT22;11516;51.612;7.510;2022-09-17T09:11:26;14.10;99.90
22698;DHT22;11516;51.612;7.510;2022-09-17T09:14:03;14.10;99.90
22698;DHT22;11516;51.612;7.510;2022-09-17T09:16:32;13.90;99.90
22698;DHT22;11516;51.612;7.510;2022-09-17T09:19:27;13.80;99.90
22698;DHT22;11516;51.612;7.510;2022-09-17T09:22:03;13.70;99.90
22698;DHT22;11516;51.612;7.510;2022-09-17T09:24:57;13.80;99.90
22698;DHT22;11516;51.612;7.510;2022-09-17T09:27:27;13.90;99.90
22698;DHT22;11516;51.612;7.510;2022-09-17T09:30:08;13.90;99.90
22698;DHT22;11516;51.612;7.510;2022-09-17T09:35:17;14.30;99.90
22698;DHT22;11516;51.612;7.510;2022-09-17T09:37:49;14.30;99.90
22698;DHT22;11516;51.612;7.510;2022-09-17T09:43:26;14.30;99.90
22698;DHT22;11516;51.612;7.510;2022-09-17T09:51:56;14.50;99.90
22698;DHT22;11516;51.612;7.510;2022-09-17T09:56:59;14.80;99.90
22698;DHT22;11516;51.612;7.510;2022-09-17T09:59:28;14.90;99.90
22698;DHT22;11516;51.612;7.510;2022-09-17T10:01:53;14.90;99.90
22698;DHT22;11516;51.612;7.510;2022-09-17T10:04:26;14.90;99.90
22698;DHT22;11516;51.612;7.510;2022-09-17T10:06:54;14.90;99.90
22698;DHT22;11516;51.612;7.510;2022-09-17T10:09:24;15.00;99.90
22698;DHT22;11516;51.612;7.510;2022-09-17T10:14:32;14.90;99.90
22698;DHT22;11516;51.612;7.510;2022-09-17T10:17:23;15.00;99.90
22698;DHT22;11516;51.612;7.510;2022-09-17T10:22:32;15.30;99.90
22698;DHT22;11516;51.612;7.510;2022-09-17T10:24:59;15.10;99.90
22698;DHT22;11516;51.612;7.510;2022-09-17T10:27:26;15.00;99.90
22698;DHT22;11516;51.612;7.510;2022-09-17T10:32:33;15.00;99.90
22698;DHT22;11516;51.612;7.510;2022-09-17T10:35:03;15.00;99.90
22698;DHT22;11516;51.612;7.510;2022-09-17T10:37:47;14.90;99.90
22698;DHT22;11516;51.612;7.510;2022-09-17T10:42:45;15.30;99.90
22698;DHT22;11516;51.612;7.510;2022-09-17T10:47:49;15.60;99.90
22698;DHT22;11516;51.612;7.510;2022-09-17T10:50:26;15.40;99.90
22698;DHT22;11516;51.612;7.510;2022-09-17T10:52:57;15.20;99.90
22698;DHT22;11516;51.612;7.510;2022-09-17T10:55:34;14.50;99.90
22698;DHT22;11516;51.612;7.510;2022-09-17T11:03:44;13.60;99.90
22698;DHT22;11516;51.612;7.510;2022-09-17T11:06:37;13.40;99.90
22698;DHT22;11516;51.612;7.510;2022-09-17T11:24:21;14.40;99.90
22698;DHT22;11516;51.612;7.510;2022-09-17T11:35:19;15.90;99.90
22698;DHT22;11516;51.612;7.510;2022-09-17T11:45:57;16.10;99.90
22698;DHT22;11516;51.612;7.510;2022-09-17T11:48:33;15.80;99.90
22698;DHT22;11516;51.612;7.510;2022-09-17T11:53:48;14.80;99.90
22698;DHT22;11516;51.612;7.510;2022-09-17T11:56:23;14.20;99.90
22698;DHT22;11516;51.612;7.510;2022-09-17T11:59:09;13.80;99.90
22698;DHT22;11516;51.612;7.510;2022-09-17T12:01:51;13.40;99.90
22698;DHT22;11516;51.612;7.510;2022-09-17T12:04:32;13.00;99.90
22698;DHT22;11516;51.612;7.510;2022-09-17T12:07:24;12.70;99.90
22698;DHT22;11516;51.612;7.510;2022-09-17T12:10:27;12.80;99.90
22698;DHT22;11516;51.612;7.510;2022-09-17T12:15:35;14.60;99.90
22698;DHT22;11516;51.612;7.510;2022-09-17T12:18:16;15.90;99.90
22698;DHT22;11516;51.612;7.510;2022-09-17T12:20:47;16.30;99.90
22698;DHT22;11516;51.612;7.510;2022-09-17T12:23:35;16.30;99.90
22698;DHT22;11516;51.612;7.510;2022-09-17T12:29:05;17.10;99.90
22698;DHT22;11516;51.612;7.510;2022-09-17T12:31:49;17.70;99.90
22698;DHT22;11516;51.612;7.510;2022-09-17T12:37:15;17.30;99.90
22698;DHT22;11516;51.612;7.510;2022-09-17T12:39:57;16.50;99.90
22698;DHT22;11516;51.612;7.510;2022-09-17T12:54:01;16.90;99.90
22698;DHT22;11516;51.612;7.510;2022-09-17T12:59:12;16.00;99.90
22698;DHT22;11516;51.612;7.510;2022-09-17T13:01:58;15.30;99.90
22698;DHT22;11516;51.612;7.510;2022-09-17T13:07:28;13.50;99.90
22698;DHT22;11516;51.612;7.510;2022-09-17T13:10:23;12.90;99.90
22698;DHT22;11516;51.612;7.510;2022-09-17T13:12:59;12.60;99.90
22698;DHT22;11516;51.612;7.510;2022-09-17T13:15:39;12.40;99.90
22698;DHT22;11516;51.612;7.510;2022-09-17T13:18:16;12.20;99.90
22698;DHT22;11516;51.612;7.510;2022-09-17T13:23:31;12.10;99.90
22698;DHT22;11516;51.612;7.510;2022-09-17T13:25:58;12.00;99.90
22698;DHT22;11516;51.612;7.510;2022-09-17T13:28:36;12.10;99.90
22698;DHT22;11516;51.612;7.510;2022-09-17T13:31:02;12.80;99.90
22698;DHT22;11516;51.612;7.510;2022-09-17T13:39:46;13.30;99.90
22698;DHT22;11516;51.612;7.510;2022-09-17T13:42:41;13.70;99.90
22698;DHT22;11516;51.612;7.510;2022-09-17T13:45:05;13.60;99.90
22698;DHT22;11516;51.612;7.510;2022-09-17T13:47:39;13.40;99.90
22698;DHT22;11516;51.612;7.510;2022-09-17T13:50:42;13.60;99.90
22698;DHT22;11516;51.612;7.510;2022-09-17T13:58:07;13.50;99.90
22698;DHT22;11516;51.612;7.510;2022-09-17T14:00:54;13.20;99.90
22698;DHT22;11516;51.612;7.510;2022-09-17T14:22:07;15.40;99.90
22698;DHT22;11516;51.612;7.510;2022-09-17T14:24:46;15.30;99.90
22698;DHT22;11516;51.612;7.510;2022-09-17T14:35:32;15.00;99.90
22698;DHT22;11516;51.612;7.510;2022-09-17T14:38:21;14.60;99.90
22698;DHT22;11516;51.612;7.510;2022-09-17T14:41:06;14.50;99.90
22698;DHT22;11516;51.612;7.510;2022-09-17T14:43:54;14.30;99.90
22698;DHT22;11516;51.612;7.510;2022-09-17T14:46:33;13.70;99.90
22698;DHT22;11516;51.612;7.510;2022-09-17T14:49:22;13.10;99.90
22698;DHT22;11516;51.612;7.510;2022-09-17T14:51:50;12.70;99.90
22698;DHT22;11516;51.612;7.510;2022-09-17T14:54:21;12.40;99.90
22698;DHT22;11516;51.612;7.510;2022-09-17T14:59:46;12.00;99.90
22698;DHT22;11516;51.612;7.510;2022-09-17T15:02:42;11.90;99.90
22698;DHT22;11516;51.612;7.510;2022-09-17T15:07:46;13.30;99.90
22698;DHT22;11516;51.612;7.510;2022-09-17T15:10:15;13.80;99.90
22698;DHT22;11516;51.612;7.510;2022-09-17T15:12:43;14.10;99.90
22698;DHT22;11516;51.612;7.510;2022-09-17T15:15:20;14.40;99.90
22698;DHT22;11516;51.612;7.510;2022-09-17T15:17:48;15.30;99.90
22698;DHT22;11516;51.612;7.510;2022-09-17T15:20:23;15.20;99.90
22698;DHT22;11516;51.612;7.510;2022-09-17T15:23:00;14.20;99.90
22698;DHT22;11516;51.612;7.510;2022-09-17T15:25:28;13.70;99.90
22698;DHT22;11516;51.612;7.510;2022-09-17T15:27:56;13.40;99.90
22698;DHT22;11516;51.612;7.510;2022-09-17T15:30:24;13.30;99.90
22698;DHT22;11516;51.612;7.510;2022-09-17T15:32:55;13.50;99.90
22698;DHT22;11516;51.612;7.510;2022-09-17T15:35:28;14.10;99.90
22698;DHT22;11516;51.612;7.510;2022-09-17T15:38:00;14.20;99.90
22698;DHT22;11516;51.612;7.510;2022-09-17T15:40:31;14.20;99.90
22698;DHT22;11516;51.612;7.510;2022-09-17T15:43:20;14.10;99.90
22698;DHT22;11516;51.612;7.510;2022-09-17T15:45:46;13.90;99.90
22698;DHT22;11516;51.612;7.510;2022-09-17T15:48:36;13.70;99.90
22698;DHT22;11516;51.612;7.510;2022-09-17T15:51:05;13.60;99.90
22698;DHT22;11516;51.612;7.510;2022-09-17T15:53:53;13.80;99.90
22698;DHT22;11516;51.612;7.510;2022-09-17T15:56:27;14.30;99.90
22698;DHT22;11516;51.612;7.510;2022-09-17T15:59:02;14.30;99.90
22698;DHT22;11516;51.612;7.510;2022-09-17T16:08:59;13.80;99.90
22698;DHT22;11516;51.612;7.510;2022-09-17T16:11:30;13.60;99.90
22698;DHT22;11516;51.612;7.510;2022-09-17T16:13:59;13.40;99.90
22698;DHT22;11516;51.612;7.510;2022-09-17T16:16:31;13.30;99.90
22698;DHT22;11516;51.612;7.510;2022-09-17T16:18:57;13.30;99.90
22698;DHT22;11516;51.612;7.510;2022-09-17T16:21:23;13.30;99.90
22698;DHT22;11516;51.612;7.510;2022-09-17T16:23:49;13.30;99.90
22698;DHT22;11516;51.612;7.510;2022-09-17T16:26:20;13.20;99.90
22698;DHT22;11516;51.612;7.510;2022-09-17T16:28:48;13.30;99.90
22698;DHT22;11516;51.612;7.510;2022-09-17T16:31:16;13.20;99.90
22698;DHT22;11516;51.612;7.510;2022-09-17T16:33:41;13.10;99.90
22698;DHT22;11516;51.612;7.510;2022-09-17T16:36:08;13.10;99.90
22698;DHT22;11516;51.612;7.510;2022-09-17T16:38:35;13.10;99.90
22698;DHT22;11516;51.612;7.510;2022-09-17T16:41:04;13.10;99.90
22698;DHT22;11516;51.612;7.510;2022-09-17T16:43:29;13.00;99.90
22698;DHT22;11516;51.612;7.510;2022-09-17T16:46:03;13.00;99.90
22698;DHT22;11516;51.612;7.510;2022-09-17T16:48:32;12.90;99.90
22698;DHT22;11516;51.612;7.510;2022-09-17T16:50:59;12.80;99.90
22698;DHT22;11516;51.612;7.510;2022-09-17T16:53:26;12.80;99.90
22698;DHT22;11516;51.612;7.510;2022-09-17T16:55:52;12.70;99.90
22698;DHT22;11516;51.612;7.510;2022-09-17T16:58:18;12.60;99.90
22698;DHT22;11516;51.612;7.510;2022-09-17T17:00:44;12.80;99.90
22698;DHT22;11516;51.612;7.510;2022-09-17T17:03:13;12.70;99.90
22698;DHT22;11516;51.612;7.510;2022-09-17T17:05:39;12.70;99.90
22698;DHT22;11516;51.612;7.510;2022-09-17T17:08:06;12.60;99.90
22698;DHT22;11516;51.612;7.510;2022-09-17T17:10:33;12.70;99.90
22698;DHT22;11516;51.612;7.510;2022-09-17T17:12:59;12.50;99.90
22698;DHT22;11516;51.612;7.510;2022-09-17T17:15:27;12.50;99.90
22698;DHT22;11516;51.612;7.510;2022-09-17T17:17:53;12.50;99.90
22698;DHT22;11516;51.612;7.510;2022-09-17T17:20:25;12.70;99.90
22698;DHT22;11516;51.612;7.510;2022-09-17T17:22:50;12.60;99.90
22698;DHT22;11516;51.612;7.510;2022-09-17T17:25:16;12.60;99.90
22698;DHT22;11516;51.612;7.510;2022-09-17T17:27:42;12.70;99.90
22698;DHT22;11516;51.612;7.510;2022-09-17T17:30:09;12.70;99.90
22698;DHT22;11516;51.612;7.510;2022-09-17T17:32:43;12.70;99.90
22698;DHT22;11516;51.612;7.510;2022-09-17T17:35:10;12.70;99.90
22698;DHT22;11516;51.612;7.510;2022-09-17T17:37:36;12.70;99.90
22698;DHT22;11516;51.612;7.510;2022-09-17T17:40:02;12.70;99.90
22698;DHT22;11516;51.612;7.510;2022-09-17T17:42:34;12.60;99.90
22698;DHT22;11516;51.612;7.510;2022-09-17T17:45:03;12.50;99.90
22698;DHT22;11516;51.612;7.510;2022-09-17T17:47:29;12.40;99.90
22698;DHT22;11516;51.612;7.510;2022-09-17T17:49:55;12.40;99.90
22698;DHT22;11516;51.612;7.510;2022-09-17T17:52:30;12.30;99.90
22698;DHT22;11516;51.612;7.510;2022-09-17T17:54:56;12.30;99.90
22698;DHT22;11516;51.612;7.510;2022-09-17T17:57:27;12.30;99.90
22698;DHT22;11516;51.612;7.510;2022-09-17T17:59:53;12.10;99.90
22698;DHT22;11516;51.612;7.510;2022-09-17T18:02:18;12.10;99.90
22698;DHT22;11516;51.612;7.510;2022-09-17T18:04:44;12.10;99.90
22698;DHT22;11516;51.612;7.510;2022-09-17T18:07:09;12.00;99.90
22698;DHT22;11516;51.612;7.510;2022-09-17T18:09:35;11.90;99.90
22698;DHT22;11516;51.612;7.510;2022-09-17T18:12:03;11.90;99.90
22698;DHT22;11516;51.612;7.510;2022-09-17T18:14:29;11.80;99.90
22698;DHT22;11516;51.612;7.510;2022-09-17T18:16:54;11.80;99.90
22698;DHT22;11516;51.612;7.510;2022-09-17T18:19:20;11.80;99.90
22698;DHT22;11516;51.612;7.510;2022-09-17T18:21:45;11.80;99.90
22698;DHT22;11516;51.612;7.510;2022-09-17T18:24:11;11.70;99.90
22698;DHT22;11516;51.612;7.510;2022-09-17T18:26:36;11.70;99.90
22698;DHT22;11516;51.612;7.510;2022-09-17T18:29:02;11.80;99.90
22698;DHT22;11516;51.612;7.510;2022-09-17T18:31:32;11.80;99.90
22698;DHT22;11516;51.612;7.510;2022-09-17T18:34:14;11.80;99.90
22698;DHT22;11516;51.612;7.510;2022-09-17T18:36:41;11.80;99.90
22698;DHT22;11516;51.612;7.510;2022-09-17T18:39:10;11.90;99.90
22698;DHT22;11516;51.612;7.510;2022-09-17T18:41:38;11.80;99.90
22698;DHT22;11516;51.612;7.510;2022-09-17T18:44:09;11.80;99.90
22698;DHT22;11516;51.612;7.510;2022-09-17T18:46:35;11.80;99.90